createdAt,value
2023-01-17T00:00:03.701Z,63.47
2023-01-17T00:02:36.231Z,63.58
2023-01-17T00:05:19.832Z,64.21
2023-01-17T00:08:02.687Z,64.85
2023-01-17T00:10:33.037Z,64.91
2023-01-17T00:13:06.119Z,65.12
2023-01-17T00:15:40.216Z,65.04
2023-01-17T00:18:10.608Z,65.88
2023-01-17T00:20:53.313Z,66.06
2023-01-17T00:23:38.513Z,66.34
2023-01-17T00:26:13.855Z,66.94
2023-01-17T00:28:42.977Z,66.99
2023-01-17T00:31:15.728Z,66.99
2023-01-17T00:33:43.399Z,67.08
2023-01-17T00:36:11.630Z,67.04
2023-01-17T00:38:40.377Z,67.24
2023-01-17T00:41:10.345Z,67.46
2023-01-17T00:43:53.665Z,67.73
2023-01-17T00:46:39.647Z,67.69
2023-01-17T00:49:22.836Z,68.51
2023-01-17T00:52:06.374Z,68.50
2023-01-17T00:54:49.095Z,68.90
2023-01-17T00:57:31.812Z,69.71
2023-01-17T01:00:14.534Z,70.07
2023-01-17T01:03:00.205Z,70.26
2023-01-17T01:05:45.083Z,70.90
2023-01-17T01:08:39.579Z,70.81
2023-01-17T01:11:24.713Z,71.08
2023-01-17T01:14:07.557Z,71.21
2023-01-17T01:16:50.479Z,71.42
2023-01-17T01:19:35.863Z,71.45
2023-01-17T01:22:18.773Z,71.41
2023-01-17T01:25:01.471Z,71.45
2023-01-17T01:27:44.124Z,71.40
2023-01-17T01:30:27.650Z,71.94
2023-01-17T01:33:10.309Z,71.70
2023-01-17T01:35:44.664Z,71.71
2023-01-17T01:38:14.984Z,71.23
2023-01-17T01:40:48.223Z,71.25
2023-01-17T01:43:22.667Z,70.92
2023-01-17T01:45:58.574Z,70.88
2023-01-17T01:48:39.641Z,70.17
2023-01-17T01:51:17.756Z,70.62
2023-01-17T01:53:56.066Z,71.14
2023-01-17T01:56:27.054Z,71.22
2023-01-17T01:58:58.269Z,71.12
2023-01-17T02:01:29.684Z,71.50
2023-01-17T02:04:00.415Z,71.33
2023-01-17T02:06:38.352Z,71.32
2023-01-17T02:09:12.695Z,71.08
2023-01-17T02:11:44.247Z,71.54
2023-01-17T02:14:19.065Z,71.55
2023-01-17T02:17:14.569Z,71.76
2023-01-17T02:20:24.664Z,71.51
2023-01-17T02:23:51.486Z,71.83
2023-01-17T02:26:57.289Z,71.48
2023-01-17T02:30:17.419Z,71.79
2023-01-17T02:33:01.629Z,72.03
2023-01-17T02:35:40.837Z,72.03
2023-01-17T02:38:26.475Z,72.08
2023-01-17T02:41:03.119Z,72.19
2023-01-17T02:43:34.581Z,72.17
2023-01-17T02:46:04.907Z,72.05
2023-01-17T02:48:40.253Z,71.96
2023-01-17T02:51:46.271Z,72.58
2023-01-17T02:54:40.175Z,72.96
2023-01-17T02:57:37.858Z,73.41
2023-01-17T03:00:22.452Z,72.97
2023-01-17T03:03:05.540Z,72.77
2023-01-17T03:05:44.765Z,73.03
2023-01-17T03:08:16.420Z,73.22
2023-01-17T03:10:47.754Z,72.89
2023-01-17T03:13:17.812Z,73.40
2023-01-17T03:15:48.762Z,73.73
2023-01-17T03:18:19.784Z,73.95
2023-01-17T03:20:52.815Z,73.80
2023-01-17T03:23:23.137Z,73.78
2023-01-17T03:25:53.529Z,73.76
2023-01-17T03:28:23.899Z,73.47
2023-01-17T03:30:54.299Z,74.33
2023-01-17T03:33:24.904Z,74.05
2023-01-17T03:35:58.264Z,74.10
2023-01-17T03:38:28.937Z,74.02
2023-01-17T03:40:59.426Z,74.03
2023-01-17T03:43:29.799Z,74.04
2023-01-17T03:46:05.983Z,73.75
2023-01-17T03:48:36.997Z,73.49
2023-01-17T03:51:09.961Z,73.65
2023-01-17T03:53:40.304Z,73.83
2023-01-17T03:56:11.263Z,73.51
2023-01-17T03:58:41.633Z,73.32
2023-01-17T04:01:12.700Z,73.08
2023-01-17T04:03:43.386Z,73.04
2023-01-17T04:06:16.395Z,72.64
2023-01-17T04:08:46.685Z,72.80
2023-01-17T04:11:17.011Z,72.85
2023-01-17T04:13:47.790Z,72.87
2023-01-17T04:16:21.055Z,72.90
2023-01-17T04:18:51.379Z,73.10
2023-01-17T04:21:24.393Z,73.00
2023-01-17T04:23:54.691Z,73.10
2023-01-17T04:26:25.011Z,72.40
2023-01-17T04:28:55.289Z,71.65
2023-01-17T04:31:25.602Z,71.75
2023-01-17T04:33:56.154Z,71.55
2023-01-17T04:36:29.109Z,71.30
2023-01-17T04:38:59.454Z,70.86
2023-01-17T04:41:29.860Z,70.82
2023-01-17T04:44:00.149Z,70.43
2023-01-17T04:46:30.564Z,70.71
2023-01-17T04:49:00.875Z,71.03
2023-01-17T04:51:33.874Z,71.52
2023-01-17T04:54:04.182Z,71.04
2023-01-17T04:56:34.470Z,71.66
2023-01-17T04:59:04.745Z,71.72
2023-01-17T05:01:35.265Z,72.04
2023-01-17T05:04:05.958Z,72.08
2023-01-17T05:06:38.991Z,72.25
2023-01-17T05:09:09.614Z,71.99
2023-01-17T05:11:40.112Z,71.97
2023-01-17T05:14:10.497Z,71.64
2023-01-17T05:16:40.814Z,72.09
2023-01-17T05:19:11.222Z,72.04
2023-01-17T05:21:44.217Z,71.70
2023-01-17T05:24:14.570Z,72.26
2023-01-17T05:26:45.077Z,72.43
2023-01-17T05:29:15.637Z,72.16
2023-01-17T05:31:46.008Z,71.85
2023-01-17T05:34:17.493Z,71.99
2023-01-17T05:36:50.479Z,72.40
2023-01-17T05:39:21.053Z,72.32
2023-01-17T05:41:51.454Z,71.96
2023-01-17T05:44:21.755Z,71.85
2023-01-17T05:46:52.961Z,71.63
2023-01-17T05:49:23.046Z,71.91
2023-01-17T05:51:56.000Z,71.93
2023-01-17T05:54:26.255Z,72.09
2023-01-17T05:56:56.587Z,72.22
2023-01-17T05:59:36.552Z,72.66
2023-01-17T06:02:07.712Z,72.32
2023-01-17T06:04:38.101Z,72.14
2023-01-17T06:07:11.129Z,72.38
2023-01-17T06:09:41.389Z,72.89
2023-01-17T06:12:11.924Z,72.85
2023-01-17T06:14:42.264Z,72.98
2023-01-17T06:17:12.638Z,72.99
2023-01-17T06:19:43.010Z,72.81
2023-01-17T06:22:15.942Z,73.36
2023-01-17T06:24:46.196Z,73.91
2023-01-17T06:27:16.475Z,74.29
2023-01-17T06:29:46.779Z,74.41
2023-01-17T06:32:17.094Z,74.63
2023-01-17T06:34:47.597Z,75.46
2023-01-17T06:37:20.588Z,75.85
2023-01-17T06:39:50.838Z,76.77
2023-01-17T06:42:21.179Z,77.95
2023-01-17T06:44:51.422Z,78.33
2023-01-17T06:47:21.790Z,79.21
2023-01-17T06:49:52.045Z,78.86
2023-01-17T06:52:24.957Z,78.59
2023-01-17T06:54:55.244Z,78.89
2023-01-17T06:57:25.660Z,78.74
2023-01-17T06:59:55.961Z,78.66
2023-01-17T07:02:26.361Z,77.68
2023-01-17T07:04:56.728Z,77.36
2023-01-17T07:07:29.653Z,77.20
2023-01-17T07:10:00.543Z,76.49
2023-01-17T07:12:30.870Z,76.09
2023-01-17T07:15:01.146Z,75.97
2023-01-17T07:17:31.452Z,75.95
2023-01-17T07:20:02.089Z,75.48
2023-01-17T07:22:37.130Z,75.21
2023-01-17T07:25:08.722Z,75.31
2023-01-17T07:27:38.988Z,75.27
2023-01-17T07:30:11.822Z,74.90
2023-01-17T07:32:42.574Z,74.41
2023-01-17T07:35:13.373Z,74.09
2023-01-17T07:37:51.154Z,73.79
2023-01-17T07:40:23.166Z,73.07
2023-01-17T07:42:53.519Z,72.16
2023-01-17T07:45:23.877Z,71.87
2023-01-17T07:47:54.116Z,71.51
2023-01-17T07:50:24.418Z,70.93
2023-01-17T07:52:57.289Z,70.91
2023-01-17T07:55:27.649Z,70.57
2023-01-17T07:57:58.081Z,70.36
2023-01-17T08:00:29.195Z,69.90
2023-01-17T08:03:00.161Z,69.92
2023-01-17T08:05:32.012Z,69.34
2023-01-17T08:08:04.974Z,69.29
2023-01-17T08:10:35.230Z,68.74
2023-01-17T08:13:05.556Z,68.79
2023-01-17T08:15:36.015Z,68.91
2023-01-17T08:18:06.608Z,68.55
2023-01-17T08:20:37.053Z,68.00
2023-01-17T08:23:09.970Z,68.05
2023-01-17T08:25:40.610Z,67.99
2023-01-17T08:28:11.067Z,67.20
2023-01-17T08:30:44.146Z,66.61
2023-01-17T08:33:14.470Z,66.43
2023-01-17T08:35:55.152Z,65.87
2023-01-17T08:38:28.183Z,65.90
2023-01-17T08:41:03.921Z,65.76
2023-01-17T08:43:34.241Z,64.83
2023-01-17T08:46:06.482Z,64.64
2023-01-17T08:48:37.036Z,64.58
2023-01-17T08:51:07.891Z,64.15
2023-01-17T08:53:42.013Z,63.63
2023-01-17T08:56:12.945Z,62.97
2023-01-17T08:58:43.657Z,62.06
2023-01-17T09:01:14.191Z,60.40
2023-01-17T09:03:45.723Z,58.85
2023-01-17T09:06:18.625Z,58.49
2023-01-17T09:08:51.526Z,58.34
2023-01-17T09:11:22.011Z,56.99
2023-01-17T09:13:52.406Z,55.20
2023-01-17T09:16:22.774Z,53.79
2023-01-17T09:18:57.292Z,53.75
2023-01-17T09:21:29.317Z,53.10
2023-01-17T09:24:02.277Z,53.74
2023-01-17T09:26:33.592Z,54.28
2023-01-17T09:29:04.158Z,54.38
2023-01-17T09:31:34.967Z,54.84
2023-01-17T09:34:05.527Z,53.10
2023-01-17T09:36:35.933Z,50.35
2023-01-17T09:39:09.418Z,48.80
2023-01-17T09:41:47.783Z,48.53
2023-01-17T09:44:29.119Z,48.09
2023-01-17T09:47:06.053Z,47.97
2023-01-17T09:49:44.270Z,46.64
2023-01-17T09:52:18.539Z,45.95
2023-01-17T09:54:52.710Z,45.03
2023-01-17T09:57:41.197Z,45.30
2023-01-17T10:00:34.242Z,45.70
2023-01-17T10:03:45.444Z,46.60
2023-01-17T10:06:42.096Z,48.04
2023-01-17T10:09:38.340Z,49.12
2023-01-17T10:12:24.507Z,49.13
2023-01-17T10:15:33.611Z,48.34
2023-01-17T10:18:30.360Z,46.85
2023-01-17T10:21:10.977Z,46.73
2023-01-17T10:24:19.443Z,45.53
2023-01-17T10:26:54.560Z,45.37
2023-01-17T10:29:31.505Z,45.62
2023-01-17T10:32:04.563Z,45.74
2023-01-17T10:34:42.726Z,45.19
2023-01-17T10:37:24.148Z,44.98
2023-01-17T10:39:59.277Z,45.65
2023-01-17T10:42:40.225Z,46.13
2023-01-17T10:45:25.742Z,47.46
2023-01-17T10:48:05.116Z,47.61
2023-01-17T10:50:46.848Z,47.64
2023-01-17T10:53:35.106Z,47.97
2023-01-17T10:56:06.457Z,48.67
2023-01-17T10:58:36.759Z,49.06
2023-01-17T11:01:20.481Z,49.93
2023-01-17T11:03:55.414Z,50.61
2023-01-17T11:06:27.720Z,50.84
2023-01-17T11:09:01.137Z,51.45
2023-01-17T11:11:34.373Z,51.15
2023-01-17T11:14:19.249Z,50.84
2023-01-17T11:17:03.183Z,48.56
2023-01-17T11:19:36.412Z,47.51
2023-01-17T11:22:10.243Z,46.26
2023-01-17T11:24:45.941Z,44.75
2023-01-17T11:27:28.993Z,42.67
2023-01-17T11:30:18.115Z,41.87
2023-01-17T11:33:00.109Z,43.20
2023-01-17T11:35:33.637Z,44.22
2023-01-17T11:38:13.402Z,45.43
2023-01-17T11:40:45.440Z,46.11
2023-01-17T11:43:25.968Z,47.03
2023-01-17T11:46:18.771Z,47.84
2023-01-17T11:48:56.488Z,48.60
2023-01-17T11:51:31.284Z,48.49
2023-01-17T11:54:18.497Z,48.14
2023-01-17T11:56:50.643Z,48.52
2023-01-17T11:59:30.155Z,48.34
2023-01-17T12:02:53.033Z,48.71
2023-01-17T12:05:43.675Z,48.70
2023-01-17T12:08:28.018Z,47.71
2023-01-17T12:11:08.372Z,47.19
2023-01-17T12:14:00.966Z,46.02
2023-01-17T12:16:49.341Z,44.37
2023-01-17T12:19:45.710Z,44.10
2023-01-17T12:22:35.876Z,44.03
2023-01-17T12:25:27.977Z,44.53
2023-01-17T12:28:22.687Z,45.10
2023-01-17T12:31:13.482Z,45.01
2023-01-17T12:33:53.171Z,45.10
2023-01-17T12:36:42.803Z,45.07
2023-01-17T12:39:15.804Z,43.69
2023-01-17T12:42:01.129Z,43.70
2023-01-17T12:44:51.976Z,43.30
2023-01-17T12:47:24.024Z,42.61
2023-01-17T12:50:07.246Z,35.28
2023-01-17T12:52:51.368Z,31.24
2023-01-17T12:55:37.808Z,30.41
2023-01-17T12:58:16.407Z,29.75
2023-01-17T13:00:53.160Z,28.37
2023-01-17T13:03:34.644Z,26.58
2023-01-17T13:06:06.634Z,26.25
2023-01-17T13:08:43.916Z,24.10
2023-01-17T13:11:23.404Z,23.60
2023-01-17T13:13:57.431Z,23.41
2023-01-17T13:16:35.273Z,22.86
2023-01-17T13:19:14.492Z,22.42
2023-01-17T13:21:45.075Z,22.16
2023-01-17T13:24:39.514Z,22.58
2023-01-17T13:28:05.212Z,23.58
2023-01-17T13:31:12.689Z,24.68
2023-01-17T13:34:01.854Z,26.50
2023-01-17T13:36:51.795Z,27.88
2023-01-17T13:39:51.572Z,29.77
2023-01-17T13:42:30.819Z,30.90
2023-01-17T13:45:11.253Z,31.48
2023-01-17T13:47:45.062Z,32.34
2023-01-17T13:50:53.100Z,34.07
2023-01-17T13:54:03.967Z,35.34
2023-01-17T13:56:38.311Z,36.35
2023-01-17T13:59:31.131Z,36.76
2023-01-17T14:02:04.457Z,36.60
2023-01-17T14:05:13.446Z,36.21
2023-01-17T14:07:50.565Z,35.96
2023-01-17T14:10:37.715Z,35.58
2023-01-17T14:13:28.593Z,36.22
2023-01-17T14:15:59.266Z,36.49
2023-01-17T14:18:40.371Z,35.38
2023-01-17T14:21:22.169Z,35.08
2023-01-17T14:24:04.028Z,34.79
2023-01-17T14:26:49.838Z,34.26
2023-01-17T14:29:53.031Z,33.46
2023-01-17T14:32:27.191Z,33.49
2023-01-17T14:35:00.817Z,34.62
2023-01-17T14:37:46.468Z,35.86
2023-01-17T14:40:26.123Z,35.74
2023-01-17T14:43:04.556Z,36.16
2023-01-17T14:45:37.622Z,36.82
2023-01-17T14:48:14.070Z,37.73
2023-01-17T14:50:51.422Z,38.29
2023-01-17T14:53:28.365Z,38.99
2023-01-17T14:56:02.788Z,39.83
2023-01-17T14:58:35.136Z,40.04
2023-01-17T15:01:08.501Z,40.35
2023-01-17T15:03:47.415Z,41.27
2023-01-17T15:06:24.915Z,41.61
2023-01-17T15:08:55.307Z,42.24
2023-01-17T15:11:30.230Z,42.82
2023-01-17T15:14:05.940Z,43.22
2023-01-17T15:16:41.122Z,43.71
2023-01-17T15:19:14.991Z,43.60
2023-01-17T15:21:51.346Z,43.93
2023-01-17T15:24:25.855Z,43.82
2023-01-17T15:26:56.303Z,43.93
2023-01-17T15:29:29.842Z,44.26
2023-01-17T15:32:02.153Z,44.23
2023-01-17T15:34:34.520Z,45.05
2023-01-17T15:37:11.821Z,45.31
2023-01-17T15:39:43.811Z,44.78
2023-01-17T15:42:26.172Z,44.78
2023-01-17T15:44:59.080Z,45.29
2023-01-17T15:47:35.565Z,46.19
2023-01-17T15:50:31.502Z,47.25
2023-01-17T15:53:10.317Z,47.50
2023-01-17T15:55:42.142Z,49.30
2023-01-17T15:58:27.967Z,49.75
2023-01-17T16:00:58.883Z,49.75
2023-01-17T16:03:32.246Z,50.58
2023-01-17T16:06:06.247Z,50.94
2023-01-17T16:08:40.918Z,50.44
2023-01-17T16:11:15.841Z,50.39
2023-01-17T16:13:47.448Z,50.47
2023-01-17T16:16:26.922Z,50.67
2023-01-17T16:19:03.906Z,51.65
2023-01-17T16:21:35.212Z,50.80
2023-01-17T16:24:11.498Z,51.34
2023-01-17T16:26:41.847Z,51.37
2023-01-17T16:29:12.269Z,50.95
2023-01-17T16:31:42.591Z,50.86
2023-01-17T16:34:14.955Z,50.93
2023-01-17T16:36:45.589Z,52.17
2023-01-17T16:39:19.257Z,52.61
2023-01-17T16:41:49.535Z,52.87
2023-01-17T16:44:19.960Z,53.35
2023-01-17T16:46:50.465Z,54.08
2023-01-17T16:49:20.930Z,53.53
2023-01-17T16:51:52.330Z,53.34
2023-01-17T16:54:26.586Z,52.97
2023-01-17T16:56:57.013Z,53.32
2023-01-17T16:59:36.743Z,53.84
2023-01-17T17:02:15.254Z,53.57
2023-01-17T17:04:45.871Z,53.79
2023-01-17T17:07:16.417Z,53.58
2023-01-17T17:09:49.615Z,54.17
2023-01-17T17:12:19.919Z,55.33
2023-01-17T17:14:50.177Z,55.20
2023-01-17T17:17:20.467Z,56.22
2023-01-17T17:19:51.017Z,56.56
2023-01-17T17:22:21.433Z,56.46
2023-01-17T17:24:54.343Z,56.76
2023-01-17T17:27:26.614Z,56.95
2023-01-17T17:29:57.051Z,57.10
2023-01-17T17:32:28.205Z,57.03
2023-01-17T17:34:58.604Z,57.19
2023-01-17T17:37:30.043Z,57.94
2023-01-17T17:40:04.060Z,57.93
2023-01-17T17:42:34.451Z,57.93
2023-01-17T17:45:04.946Z,57.95
2023-01-17T17:47:35.343Z,57.82
2023-01-17T17:50:05.701Z,57.81
2023-01-17T17:52:35.980Z,57.74
2023-01-17T17:55:11.110Z,58.27
2023-01-17T17:57:41.356Z,58.91
2023-01-17T18:00:14.114Z,58.78
2023-01-17T18:02:44.408Z,59.02
2023-01-17T18:05:14.617Z,58.78
2023-01-17T18:07:47.202Z,58.88
2023-01-17T18:10:20.435Z,59.60
2023-01-17T18:12:50.703Z,59.38
2023-01-17T18:15:21.641Z,59.66
2023-01-17T18:17:52.674Z,60.32
2023-01-17T18:20:23.393Z,59.65
2023-01-17T18:22:53.739Z,58.87
2023-01-17T18:25:26.661Z,58.38
2023-01-17T18:27:56.997Z,58.14
2023-01-17T18:30:27.274Z,58.56
2023-01-17T18:32:57.547Z,58.80
2023-01-17T18:35:27.894Z,58.75
2023-01-17T18:37:58.183Z,59.11
2023-01-17T18:40:31.031Z,59.18
2023-01-17T18:43:01.430Z,59.33
2023-01-17T18:45:31.691Z,59.56
2023-01-17T18:48:02.693Z,60.05
2023-01-17T18:50:32.926Z,60.13
2023-01-17T18:53:03.353Z,59.86
2023-01-17T18:55:36.519Z,59.96
2023-01-17T18:58:06.802Z,60.09
2023-01-17T19:00:37.177Z,60.55
2023-01-17T19:03:07.773Z,60.51
2023-01-17T19:05:39.180Z,60.44
2023-01-17T19:08:09.717Z,60.38
2023-01-17T19:10:42.703Z,60.20
2023-01-17T19:13:13.249Z,60.21
2023-01-17T19:15:43.953Z,60.38
2023-01-17T19:18:14.307Z,60.42
2023-01-17T19:20:44.643Z,60.50
2023-01-17T19:23:15.048Z,60.34
2023-01-17T19:25:47.997Z,60.84
2023-01-17T19:28:18.280Z,60.36
2023-01-17T19:30:48.528Z,59.80
2023-01-17T19:33:18.925Z,60.63
2023-01-17T19:35:49.169Z,60.47
2023-01-17T19:38:19.443Z,59.89
2023-01-17T19:40:52.469Z,60.20
2023-01-17T19:43:22.989Z,60.26
2023-01-17T19:46:01.407Z,59.81
2023-01-17T19:48:32.410Z,59.69
2023-01-17T19:51:07.845Z,60.34
2023-01-17T19:53:39.887Z,60.33
2023-01-17T19:56:15.819Z,60.26
2023-01-17T19:58:48.343Z,60.46
2023-01-17T20:01:21.671Z,60.63
2023-01-17T20:03:53.658Z,60.51
2023-01-17T20:06:29.313Z,60.83
2023-01-17T20:09:00.128Z,61.25
2023-01-17T20:11:35.774Z,61.76
2023-01-17T20:14:08.008Z,62.33
2023-01-17T20:16:39.557Z,62.28
2023-01-17T20:19:09.958Z,61.31
2023-01-17T20:21:40.353Z,61.32
2023-01-17T20:24:13.775Z,61.52
2023-01-17T20:26:46.746Z,61.79
2023-01-17T20:29:19.652Z,61.58
2023-01-17T20:31:54.591Z,61.69
2023-01-17T20:34:26.378Z,61.72
2023-01-17T20:36:59.439Z,62.87
2023-01-17T20:39:29.973Z,63.01
2023-01-17T20:42:02.939Z,62.17
2023-01-17T20:44:34.487Z,62.52
2023-01-17T20:47:04.946Z,62.69
2023-01-17T20:49:35.577Z,62.92
2023-01-17T20:52:06.351Z,63.78
2023-01-17T20:54:36.773Z,63.57
2023-01-17T20:57:09.691Z,63.86
2023-01-17T20:59:39.987Z,63.35
2023-01-17T21:02:10.871Z,63.84
2023-01-17T21:04:41.489Z,63.55
2023-01-17T21:07:11.930Z,63.15
2023-01-17T21:09:42.935Z,63.25
2023-01-17T21:12:16.156Z,63.39
2023-01-17T21:14:46.518Z,64.11
2023-01-17T21:17:17.069Z,64.10
2023-01-17T21:19:50.086Z,64.25
2023-01-17T21:22:20.429Z,63.88
2023-01-17T21:24:50.837Z,64.42
2023-01-17T21:27:23.815Z,64.19
2023-01-17T21:29:56.033Z,63.55
2023-01-17T21:32:29.151Z,63.21
2023-01-17T21:34:59.534Z,62.93
2023-01-17T21:37:29.865Z,63.00
2023-01-17T21:40:05.238Z,62.84
2023-01-17T21:42:38.366Z,63.21
2023-01-17T21:45:10.167Z,62.96
2023-01-17T21:47:42.295Z,62.58
2023-01-17T21:50:25.072Z,61.79
2023-01-17T21:53:05.776Z,62.65
2023-01-17T21:55:48.564Z,62.74
2023-01-17T21:58:33.993Z,61.93
2023-01-17T22:01:16.081Z,62.05
2023-01-17T22:03:47.747Z,62.79
2023-01-17T22:06:18.068Z,63.24
2023-01-17T22:08:48.567Z,63.23
2023-01-17T22:11:21.535Z,63.43
2023-01-17T22:13:56.334Z,63.45
2023-01-17T22:16:28.659Z,63.80
2023-01-17T22:18:58.727Z,64.19
2023-01-17T22:21:31.453Z,63.76
2023-01-17T22:24:02.987Z,64.05
2023-01-17T22:26:35.153Z,64.00
2023-01-17T22:29:09.754Z,63.71
2023-01-17T22:31:40.577Z,64.74
2023-01-17T22:34:10.892Z,64.48
2023-01-17T22:36:41.199Z,64.46
2023-01-17T22:39:12.943Z,64.80
2023-01-17T22:41:43.262Z,64.78
2023-01-17T22:44:16.206Z,65.25
2023-01-17T22:46:46.520Z,65.65
2023-01-17T22:49:17.050Z,65.81
2023-01-17T22:51:47.457Z,65.67
2023-01-17T22:54:19.485Z,66.13
2023-01-17T22:56:50.029Z,66.42
2023-01-17T22:59:22.898Z,66.45
2023-01-17T23:01:53.212Z,66.00
2023-01-17T23:04:23.501Z,66.29
2023-01-17T23:06:53.807Z,66.32
2023-01-17T23:09:24.907Z,66.87
2023-01-17T23:11:56.804Z,66.88
2023-01-17T23:14:53.291Z,66.48
2023-01-17T23:17:38.595Z,66.64
2023-01-17T23:20:11.767Z,66.92
2023-01-17T23:22:42.091Z,67.27
2023-01-17T23:25:15.140Z,67.30
2023-01-17T23:28:00.107Z,67.01
2023-01-17T23:30:36.362Z,67.08
2023-01-17T23:33:09.922Z,66.77
2023-01-17T23:35:42.893Z,66.55
2023-01-17T23:38:28.394Z,66.48
2023-01-17T23:41:16.501Z,66.78
2023-01-17T23:43:46.749Z,67.00
2023-01-17T23:46:19.715Z,66.74
2023-01-17T23:48:50.475Z,67.00
2023-01-17T23:51:21.099Z,66.57
2023-01-17T23:53:57.410Z,66.14
2023-01-17T23:56:27.989Z,66.32
2023-01-17T23:58:58.286Z,66.78
